Time;durP1;ratioP1;P1;durP2;ratioP2;P2;SDS_P1;SDS_P2;PMS_P1;PMS_P2;Temp;Humidity;BMP_temperature;BMP_pressure;BME280_temperature;BME280_humidity;BME280_pressure;Samples;Min_cycle;Max_cycle;Signal;HPM_P1;HPM_P2
2023/10/28 00:00:43;;;;;;;;;2.33;2.00;;;;;15.62;55.94;99199.19;5085135;27;45456;-82
2023/10/28 00:03:09;;;;;;;;;1.00;1.00;;;;;15.78;56.15;99227.09;5088892;27;45503;-82
2023/10/28 00:05:35;;;;;;;;;2.00;2.00;;;;;15.76;56.17;99230.63;5089698;27;45523;-82
2023/10/28 00:08:03;;;;;;;;;2.00;2.00;;;;;15.74;56.17;99233.28;5087327;27;46175;-82
2023/10/28 00:10:33;;;;;;;;;1.00;0.33;;;;;15.75;55.87;99236.78;5088626;27;45626;-82
2023/10/28 00:13:01;;;;;;;;;0.00;0.00;;;;;15.74;55.75;99227.13;5089735;27;45425;-82
2023/10/28 00:15:27;;;;;;;;;0.33;0.00;;;;;15.63;55.86;99200.91;5086990;27;45355;-79
2023/10/28 00:17:53;;;;;;;;;0.00;0.00;;;;;15.71;55.68;99207.81;5087859;27;46042;-73
2023/10/28 00:20:21;;;;;;;;;0.00;0.00;;;;;15.75;55.30;99211.31;5089768;27;45417;-82
2023/10/28 00:22:49;;;;;;;;;0.00;0.00;;;;;15.78;55.50;99219.19;5088554;27;45267;-81
2023/10/28 00:25:16;;;;;;;;;0.33;0.00;;;;;15.79;55.47;99202.47;5087965;27;45301;-77
2023/10/28 00:27:44;;;;;;;;;1.00;0.00;;;;;15.71;55.49;99191.16;5089346;27;45277;-82
2023/10/28 00:30:11;;;;;;;;;1.00;0.00;;;;;15.67;55.83;99173.66;5088516;27;45470;-82
2023/10/28 00:32:37;;;;;;;;;0.00;0.00;;;;;15.82;54.91;99189.28;5087558;27;45476;-81
2023/10/28 00:35:07;;;;;;;;;0.00;0.00;;;;;15.85;55.15;99198.91;5084814;27;45449;-82
2023/10/28 00:37:34;;;;;;;;;0.00;0.00;;;;;15.74;55.06;99166.56;5087715;27;45950;-73
2023/10/28 00:39:59;;;;;;;;;0.33;0.00;;;;;15.87;54.78;99187.44;5088981;27;45294;-77
2023/10/28 00:42:26;;;;;;;;;0.00;0.00;;;;;15.69;54.38;99145.53;5087717;27;45277;-82
2023/10/28 00:44:54;;;;;;;;;5.75;5.50;;;;;15.94;54.45;99179.50;5088597;27;45392;-83
2023/10/28 00:47:23;;;;;;;;;2.75;2.50;;;;;15.93;54.23;99165.44;5089156;27;45606;-82
2023/10/28 00:49:50;;;;;;;;;1.00;1.00;;;;;15.96;53.96;99167.19;5086372;27;45570;-73
2023/10/28 00:52:18;;;;;;;;;0.00;0.00;;;;;16.03;53.49;99153.88;5078165;27;45402;-73
2023/10/28 00:54:47;;;;;;;;;0.00;0.00;;;;;16.07;53.65;99136.25;5078598;27;45334;-74
2023/10/28 00:57:17;;;;;;;;;0.00;0.00;;;;;15.90;52.94;99087.34;5078612;27;45553;-73
2023/10/28 00:59:43;;;;;;;;;0.00;0.00;;;;;16.17;52.98;99114.16;5078286;27;45499;-72
2023/10/28 01:02:15;;;;;;;;;0.00;0.00;;;;;16.26;52.36;99119.28;5078432;28;45345;-79
2023/10/28 01:04:40;;;;;;;;;0.00;0.00;;;;;16.30;52.77;99117.47;5078526;28;45211;-82
2023/10/28 01:07:08;;;;;;;;;0.00;0.00;;;;;16.29;52.40;99105.19;5077819;27;46206;-73
2023/10/28 01:09:47;;;;;;;;;0.00;0.00;;;;;16.03;52.04;99066.94;5078252;27;45541;-72
2023/10/28 01:12:14;;;;;;;;;1.00;0.00;;;;;16.35;51.96;99110.34;5078361;27;45524;-73
2023/10/28 01:14:40;;;;;;;;;0.33;0.00;;;;;16.32;51.88;99110.41;5077277;27;45438;-73
2023/10/28 01:17:07;;;;;;;;;0.00;0.00;;;;;16.37;51.07;99099.78;5077983;28;46211;-73
2023/10/28 01:19:34;;;;;;;;;0.00;0.00;;;;;16.46;51.29;99094.38;5076774;27;45493;-73
2023/10/28 01:22:00;;;;;;;;;0.00;0.00;;;;;16.33;50.79;99077.88;5078193;27;45325;-73
2023/10/28 01:24:28;;;;;;;;;0.00;0.00;;;;;16.51;50.21;99103.03;5078458;27;45437;-72
2023/10/28 01:26:54;;;;;;;;;0.33;0.33;;;;;16.56;49.99;99108.25;5078337;27;45537;-72
2023/10/28 01:29:20;;;;;;;;;0.00;0.00;;;;;16.60;50.36;99095.00;5078364;27;45234;-73
2023/10/28 01:31:47;;;;;;;;;1.00;0.00;;;;;16.66;49.88;99101.91;5078049;27;45292;-72
2023/10/28 01:34:12;;;;;;;;;0.00;0.00;;;;;16.70;49.42;99098.34;5078244;27;45261;-72
2023/10/28 01:36:38;;;;;;;;;0.00;0.00;;;;;16.79;49.06;99094.66;5077975;28;45335;-72
2023/10/28 01:39:04;;;;;;;;;0.00;0.00;;;;;16.83;49.12;99094.63;5077937;27;45177;-72
2023/10/28 01:41:30;;;;;;;;;0.00;0.00;;;;;16.86;49.13;99094.53;5078226;27;45464;-72
2023/10/28 01:43:55;;;;;;;;;0.00;0.00;;;;;16.85;48.96;99069.09;5078540;27;45370;-72
2023/10/28 01:46:21;;;;;;;;;0.00;0.00;;;;;16.94;48.44;99083.84;5078015;27;45824;-72
2023/10/28 01:48:47;;;;;;;;;0.00;0.00;;;;;17.00;48.45;99089.00;5077760;28;45278;-72
2023/10/28 01:51:13;;;;;;;;;0.00;0.00;;;;;17.06;48.21;99094.16;5077762;27;45529;-72
2023/10/28 01:53:39;;;;;;;;;0.67;0.00;;;;;17.12;48.53;99092.31;5077925;27;45451;-72
2023/10/28 01:56:05;;;;;;;;;0.00;0.00;;;;;17.13;48.50;99108.13;5077548;27;45976;-72
2023/10/28 01:58:32;;;;;;;;;1.00;0.00;;;;;16.86;48.35;99056.75;5077636;27;45385;-72
2023/10/28 02:00:58;;;;;;;;;0.00;0.00;;;;;17.15;48.37;99111.59;5077717;28;45471;-72
2023/10/28 02:03:24;;;;;;;;;0.00;0.00;;;;;17.17;48.58;99108.91;5078373;28;45250;-72
2023/10/28 02:05:50;;;;;;;;;0.00;0.00;;;;;17.17;48.90;99108.91;5077497;27;45378;-72
2023/10/28 02:08:16;;;;;;;;;0.33;0.00;;;;;17.05;48.72;99087.16;5077489;27;45328;-72
2023/10/28 02:10:41;;;;;;;;;0.00;0.00;;;;;17.10;48.32;99105.53;5077707;27;45322;-72
2023/10/28 02:13:07;;;;;;;;;0.00;0.00;;;;;17.08;48.66;99087.06;5077885;27;45503;-73
2023/10/28 02:15:33;;;;;;;;;0.00;0.00;;;;;17.03;48.85;99081.03;5077224;27;45488;-73
2023/10/28 02:17:59;;;;;;;;;0.00;0.00;;;;;17.16;48.99;99079.00;5077327;28;45425;-73
2023/10/28 02:20:25;;;;;;;;;0.00;0.00;;;;;17.14;48.46;99070.25;5078745;28;45543;-73
2023/10/28 02:22:50;;;;;;;;;0.00;0.00;;;;;17.18;48.52;99077.22;5084313;28;45377;-72
2023/10/28 02:25:16;;;;;;;;;1.00;0.00;;;;;17.19;48.39;99078.97;5083987;28;46279;-72
2023/10/28 02:27:42;;;;;;;;;0.00;0.00;;;;;17.19;48.64;99073.69;5084088;27;45297;-72
2023/10/28 02:30:11;;;;;;;;;0.33;0.00;;;;;17.18;48.83;99060.50;5084015;27;45265;-72
2023/10/28 02:32:37;;;;;;;;;0.00;0.00;;;;;17.17;48.26;99049.09;5084253;27;45164;-72
2023/10/28 02:35:03;;;;;;;;;0.00;0.00;;;;;17.15;48.48;99036.81;5083818;27;46119;-72
2023/10/28 02:37:29;;;;;;;;;1.00;0.00;;;;;17.27;48.43;99047.13;5084265;27;45378;-72
2023/10/28 02:39:57;;;;;;;;;1.00;0.00;;;;;17.26;48.61;99048.88;5084250;27;45434;-72
2023/10/28 02:42:23;;;;;;;;;0.00;0.00;;;;;17.07;48.53;99027.31;5084188;27;45448;-72
2023/10/28 02:44:52;;;;;;;;;0.00;0.00;;;;;17.26;48.68;99059.44;5083628;27;45393;-72
2023/10/28 02:47:18;;;;;;;;;0.33;0.00;;;;;17.34;48.07;99053.16;5083628;27;45433;-73
2023/10/28 02:49:43;;;;;;;;;0.00;0.00;;;;;17.35;48.21;99036.38;5083836;27;45234;-72
2023/10/28 02:52:09;;;;;;;;;0.00;0.00;;;;;17.34;48.26;99039.94;5084007;27;45244;-72
2023/10/28 02:54:35;;;;;;;;;0.00;0.00;;;;;17.21;48.51;99008.53;5083476;28;45268;-72
2023/10/28 02:57:01;;;;;;;;;0.00;0.00;;;;;17.33;47.99;99002.13;5082322;28;45633;-72
2023/10/28 02:59:27;;;;;;;;;0.67;0.00;;;;;17.54;47.98;99048.28;5083736;27;45946;-72
2023/10/28 03:01:53;;;;;;;;;1.00;0.00;;;;;17.56;47.65;99043.84;5083883;27;45350;-72
2023/10/28 03:04:19;;;;;;;;;0.00;0.00;;;;;17.34;48.24;98993.28;5083327;27;45343;-73
2023/10/28 03:06:45;;;;;;;;;0.00;0.00;;;;;17.69;48.37;99055.00;5083590;27;45338;-73
2023/10/28 03:09:12;;;;;;;;;0.00;0.00;;;;;17.71;47.87;99055.84;5083681;27;45504;-71
2023/10/28 03:11:38;;;;;;;;;0.00;0.00;;;;;17.71;47.63;99037.34;5083629;28;46119;-72
2023/10/28 03:14:04;;;;;;;;;0.00;0.00;;;;;17.82;47.62;99024.75;5083372;27;45379;-72
2023/10/28 03:16:31;;;;;;;;;0.00;0.00;;;;;17.81;47.31;99024.81;5083938;27;45342;-72
2023/10/28 03:18:57;;;;;;;;;0.00;0.00;;;;;17.84;47.30;99019.47;5083966;27;45441;-72
2023/10/28 03:21:23;;;;;;;;;17.75;16.75;;;;;17.65;47.19;98982.03;5083546;27;45441;-72
2023/10/28 03:23:49;;;;;;;;;0.00;0.00;;;;;17.52;47.28;98948.91;5083321;27;45983;-72
2023/10/28 03:26:15;;;;;;;;;0.00;0.00;;;;;17.70;47.25;98977.50;5083361;28;45500;-72
2023/10/28 03:28:41;;;;;;;;;0.00;0.00;;;;;17.78;46.86;98974.69;5083561;27;45352;-72
2023/10/28 03:31:10;;;;;;;;;0.00;0.00;;;;;17.83;46.95;98968.41;5082304;27;45591;-72
2023/10/28 03:33:40;;;;;;;;;1.00;0.00;;;;;17.83;46.52;98962.25;5079026;27;46088;-72
2023/10/28 03:36:08;;;;;;;;;0.00;0.00;;;;;17.87;46.32;98974.50;5079895;27;45445;-72
2023/10/28 03:38:34;;;;;;;;;0.00;0.00;;;;;17.88;46.21;98965.66;5080083;27;45263;-72
2023/10/28 03:41:05;;;;;;;;;0.00;0.00;;;;;17.98;46.24;98976.84;5080160;27;45249;-72
2023/10/28 03:43:31;;;;;;;;;0.67;0.00;;;;;17.97;46.19;98967.22;5079979;27;46407;-72
2023/10/28 03:45:57;;;;;;;;;1.00;0.00;;;;;17.99;46.03;98968.91;5079500;28;45342;-71
2023/10/28 03:48:23;;;;;;;;;0.00;0.00;;;;;18.04;46.27;98966.97;5079799;27;45619;-82
2023/10/28 03:50:56;;;;;;;;;0.00;0.00;;;;;17.98;46.40;98977.72;5079937;27;45543;-71
2023/10/28 03:53:22;;;;;;;;;0.67;0.00;;;;;18.01;46.24;98969.72;5079494;27;45388;-71
2023/10/28 03:55:47;;;;;;;;;0.67;0.00;;;;;17.92;46.14;98935.59;5079316;28;45464;-72
2023/10/28 03:58:13;;;;;;;;;0.00;0.00;;;;;18.08;45.78;98973.97;5079728;27;45503;-72
2023/10/28 04:00:39;;;;;;;;;0.67;0.00;;;;;18.07;45.58;98964.28;5079803;28;45366;-71
2023/10/28 04:03:05;;;;;;;;;0.00;0.00;;;;;17.89;45.73;98947.13;5078101;27;45562;-72
2023/10/28 04:05:31;;;;;;;;;1.00;0.00;;;;;18.07;45.76;98969.56;5079616;28;45420;-72
2023/10/28 04:07:57;;;;;;;;;1.00;0.00;;;;;18.11;45.68;98970.34;5079280;27;45299;-72
2023/10/28 04:10:23;;;;;;;;;0.00;0.00;;;;;18.06;45.44;98962.56;5079577;27;45377;-72
2023/10/28 04:12:49;;;;;;;;;0.00;0.00;;;;;18.00;45.56;98936.25;5079240;28;45293;-72
2023/10/28 04:15:16;;;;;;;;;0.00;0.00;;;;;18.04;45.92;98948.50;5078424;27;45676;-81
2023/10/28 04:17:42;;;;;;;;;0.00;0.00;;;;;18.03;45.44;98949.41;5078112;27;45487;-72
2023/10/28 04:20:10;;;;;;;;;0.67;0.67;;;;;17.85;45.75;98919.06;5079326;27;45363;-78
2023/10/28 04:22:38;;;;;;;;;0.00;0.00;;;;;17.98;45.62;98931.94;5078212;27;46466;-75
2023/10/28 04:25:05;;;;;;;;;0.33;0.00;;;;;17.88;45.79;98926.88;5078790;27;45483;-72
2023/10/28 04:27:32;;;;;;;;;0.00;0.00;;;;;17.72;45.78;98908.81;5078475;27;45529;-81
2023/10/28 04:29:58;;;;;;;;;0.00;0.00;;;;;17.92;46.18;98954.09;5078819;27;45480;-81
2023/10/28 04:32:24;;;;;;;;;0.67;0.00;;;;;17.97;46.00;98951.34;5078326;28;45372;-72
2023/10/28 04:34:53;;;;;;;;;0.00;0.00;;;;;17.93;46.24;98961.13;5079281;27;45571;-72
2023/10/28 04:37:19;;;;;;;;;0.00;0.00;;;;;17.89;46.33;98952.41;5077629;27;45477;-82
2023/10/28 04:39:45;;;;;;;;;0.33;0.00;;;;;17.94;46.18;98960.22;5078757;27;45370;-72
2023/10/28 04:42:10;;;;;;;;;1.00;0.00;;;;;17.91;46.10;98957.66;5078641;27;45635;-72
2023/10/28 04:44:36;;;;;;;;;0.00;0.00;;;;;17.84;46.31;98948.16;5077997;27;45409;-71
2023/10/28 04:47:02;;;;;;;;;0.00;0.00;;;;;17.85;46.36;98949.88;5078991;27;45437;-72
2023/10/28 04:49:31;;;;;;;;;0.67;0.00;;;;;17.87;46.24;98956.00;5094857;27;45592;-72
2023/10/28 04:51:56;;;;;;;;;0.00;0.00;;;;;17.79;46.59;98952.66;5078626;28;45456;-71
2023/10/28 04:54:22;;;;;;;;;0.00;0.00;;;;;17.86;46.56;98975.38;5078459;27;45488;-72
2023/10/28 04:56:51;;;;;;;;;0.00;0.00;;;;;17.87;46.40;98995.63;5078777;28;45475;-71
2023/10/28 04:59:17;;;;;;;;;0.00;0.00;;;;;17.68;45.98;98945.84;5078774;27;45442;-71
2023/10/28 05:01:42;;;;;;;;;0.00;0.00;;;;;17.78;46.21;98954.41;5078428;27;45348;-74
2023/10/28 05:04:09;;;;;;;;;0.00;0.00;;;;;18.01;46.03;98988.22;5078695;27;45319;-72
2023/10/28 05:06:35;;;;;;;;;0.00;0.00;;;;;17.99;46.33;98997.97;5078810;27;45536;-72
2023/10/28 05:09:01;;;;;;;;;1.00;0.00;;;;;17.73;46.48;98953.66;5078926;27;45386;-72
2023/10/28 05:11:27;;;;;;;;;0.00;0.00;;;;;17.98;46.23;98985.63;5078304;27;45483;-71
2023/10/28 05:13:52;;;;;;;;;0.00;0.00;;;;;18.03;46.07;98990.81;5078313;28;45256;-72
2023/10/28 05:16:19;;;;;;;;;1.00;0.00;;;;;18.07;45.90;98989.84;5078452;27;45278;-72
2023/10/28 05:18:48;;;;;;;;;0.00;0.00;;;;;18.09;45.98;98983.59;5078712;28;45354;-72
2023/10/28 05:21:13;;;;;;;;;0.00;0.00;;;;;18.07;46.29;98969.56;5078216;27;46299;-71
2023/10/28 05:23:39;;;;;;;;;0.00;0.00;;;;;18.04;46.22;98981.97;5078177;27;45384;-72
2023/10/28 05:26:05;;;;;;;;;0.00;0.00;;;;;17.99;46.03;98970.69;5078759;27;45252;-71
2023/10/28 05:28:31;;;;;;;;;0.00;0.00;;;;;18.11;45.81;98972.13;5078598;27;45456;-71
2023/10/28 05:30:57;;;;;;;;;0.00;0.00;;;;;18.07;46.00;98968.69;5077997;27;45332;-71
2023/10/28 05:33:23;;;;;;;;;0.00;0.00;;;;;18.09;45.79;98961.59;5077938;28;45391;-72
2023/10/28 05:35:49;;;;;;;;;0.00;0.00;;;;;18.05;46.22;98963.44;5078072;27;45176;-72
2023/10/28 05:38:15;;;;;;;;;0.00;0.00;;;;;17.97;46.12;98954.00;5078111;27;45361;-71
2023/10/28 05:40:40;;;;;;;;;0.67;0.00;;;;;18.00;45.89;98957.41;5077925;27;45425;-72
2023/10/28 05:43:06;;;;;;;;;0.00;0.00;;;;;18.01;46.11;98942.44;5077698;27;45535;-72
2023/10/28 05:45:32;;;;;;;;;0.00;0.00;;;;;17.98;46.23;98961.84;5077895;27;45326;-74
2023/10/28 05:47:57;;;;;;;;;0.00;0.00;;;;;17.74;46.16;98917.56;5077865;27;45400;-71
2023/10/28 05:50:24;;;;;;;;;0.00;0.00;;;;;17.85;46.59;98949.88;5077392;27;45353;-81
2023/10/28 05:52:49;;;;;;;;;0.00;0.00;;;;;17.97;46.50;98951.34;5077424;27;45455;-72
2023/10/28 05:55:15;;;;;;;;;0.00;0.00;;;;;17.89;46.44;98943.63;5076216;28;45308;-81
2023/10/28 05:57:43;;;;;;;;;5.33;5.33;;;;;17.84;46.34;98950.78;5077641;27;45404;-81
2023/10/28 06:00:10;;;;;;;;;0.00;0.00;;;;;17.85;46.81;98965.75;5077231;27;45549;-72
2023/10/28 06:02:39;;;;;;;;;2.00;1.00;;;;;17.73;47.10;98935.19;5077519;27;45564;-81
2023/10/28 06:05:05;;;;;;;;;0.00;0.00;;;;;17.86;47.08;98954.25;5077721;27;45397;-80
2023/10/28 06:07:32;;;;;;;;;0.00;0.00;;;;;17.85;47.20;98944.59;5077777;27;45361;-81
2023/10/28 06:09:58;;;;;;;;;0.00;0.00;;;;;17.78;47.25;98938.56;5077132;27;45330;-80
2023/10/28 06:12:25;;;;;;;;;0.00;0.00;;;;;17.79;47.65;98942.94;5077125;27;45441;-73
2023/10/28 06:14:51;;;;;;;;;0.00;0.00;;;;;17.77;47.69;98957.97;5076949;27;45436;-81
2023/10/28 06:17:17;;;;;;;;;0.67;0.00;;;;;17.74;47.65;98950.09;5077239;27;45522;-81
2023/10/28 06:19:43;;;;;;;;;0.00;0.00;;;;;17.72;47.70;98953.69;5077184;28;45952;-80
2023/10/28 06:22:12;;;;;;;;;0.00;0.00;;;;;17.68;47.76;98959.03;5077419;28;45437;-81
2023/10/28 06:24:38;;;;;;;;;0.00;0.00;;;;;17.65;47.77;98956.50;5077447;27;45498;-81
2023/10/28 06:27:08;;;;;;;;;0.00;0.00;;;;;17.67;47.81;98959.09;5077491;27;45372;-79
2023/10/28 06:29:34;;;;;;;;;0.00;0.00;;;;;17.68;47.73;98963.47;5075694;28;45528;-81
2023/10/28 06:31:59;;;;;;;;;0.00;0.00;;;;;17.63;47.92;98953.03;5076725;27;45437;-72
2023/10/28 06:34:28;;;;;;;;;0.00;0.00;;;;;17.64;47.98;98960.03;5076980;27;45453;-78
2023/10/28 06:36:55;;;;;;;;;0.00;0.00;;;;;17.69;47.89;98952.00;5077053;27;45503;-81
2023/10/28 06:39:21;;;;;;;;;1.00;0.00;;;;;17.67;47.89;98954.69;5076775;27;45454;-81
2023/10/28 06:41:50;;;;;;;;;0.00;0.00;;;;;17.66;48.09;98946.78;5076841;27;45559;-80
2023/10/28 06:44:18;;;;;;;;;0.00;0.00;;;;;17.52;47.91;98926.00;5076873;27;45267;-73
2023/10/28 06:46:44;;;;;;;;;5.67;5.00;;;;;17.73;48.28;98951.03;5076893;27;45389;-83
2023/10/28 06:49:10;;;;;;;;;1.00;1.00;;;;;17.74;48.41;98951.88;5077077;27;46186;-83
2023/10/28 06:51:36;;;;;;;;;6.00;5.00;;;;;17.65;48.38;98942.44;5077067;27;45385;-74
2023/10/28 06:54:02;;;;;;;;;5.00;3.33;;;;;17.68;48.57;98937.91;5076692;27;45543;-71
2023/10/28 06:56:28;;;;;;;;;3.67;3.67;;;;;17.73;48.34;98942.25;5076916;27;45451;-72
2023/10/28 06:58:54;;;;;;;;;2.00;2.00;;;;;17.70;48.27;98929.97;5076505;27;46048;-73
2023/10/28 07:01:20;;;;;;;;;0.67;0.67;;;;;17.83;48.18;98952.56;5092279;27;45365;-72
2023/10/28 07:03:46;;;;;;;;;1.00;1.00;;;;;17.77;48.18;98942.13;5076661;27;45323;-74
2023/10/28 07:06:15;;;;;;;;;4.00;3.00;;;;;17.85;48.33;98949.88;5077117;27;45422;-73
2023/10/28 07:08:41;;;;;;;;;0.67;0.00;;;;;17.85;48.33;98963.09;5080350;27;45595;-72
2023/10/28 07:11:07;;;;;;;;;0.00;0.00;;;;;17.89;48.13;98962.13;5080668;27;45420;-79
2023/10/28 07:13:32;;;;;;;;;2.00;2.00;;;;;17.80;48.30;98939.38;5080143;27;45325;-73
2023/10/28 07:16:02;;;;;;;;;1.00;1.00;;;;;17.85;48.24;98944.59;5080298;28;45329;-73
2023/10/28 07:18:31;;;;;;;;;1.00;1.00;;;;;17.97;48.15;98960.13;5080165;28;46322;-77
2023/10/28 07:20:58;;;;;;;;;1.00;1.00;;;;;18.02;48.42;98971.44;5079884;27;45546;-73
2023/10/28 07:23:26;;;;;;;;;1.33;1.00;;;;;18.13;48.35;98968.53;5079963;27;45309;-74
2023/10/28 07:25:56;;;;;;;;;0.00;0.00;;;;;18.15;48.48;98965.88;5080259;27;45291;-73
2023/10/28 07:28:22;;;;;;;;;1.00;1.00;;;;;18.09;48.46;98961.59;5079797;27;46253;-81
2023/10/28 07:30:50;;;;;;;;;1.00;0.00;;;;;18.40;48.52;98974.88;5079926;27;45303;-79
2023/10/28 07:33:17;;;;;;;;;0.00;0.00;;;;;18.59;48.44;98972.59;5079688;27;45475;-72
2023/10/28 07:35:50;;;;;;;;;1.00;1.00;;;;;18.76;48.04;98980.06;5080310;27;45588;-79
2023/10/28 07:38:17;;;;;;;;;0.00;0.00;;;;;18.87;47.86;98974.47;5079718;27;45337;-72
2023/10/28 07:40:44;;;;;;;;;0.33;0.33;;;;;19.04;47.34;98984.59;5079671;27;45405;-82
2023/10/28 07:43:17;;;;;;;;;1.33;1.00;;;;;18.74;47.38;98902.53;5079873;27;45311;-83
2023/10/28 07:45:44;;;;;;;;;2.00;1.00;;;;;19.61;47.49;98977.53;5080199;27;45579;-83
2023/10/28 07:48:11;;;;;;;;;0.00;0.00;;;;;21.06;45.25;98979.56;5079668;27;46115;-83
2023/10/28 07:50:38;;;;;;;;;0.00;0.00;;;;;22.06;43.41;98977.41;5079466;27;45371;-82
2023/10/28 07:53:11;;;;;;;;;0.00;0.00;;;;;23.81;39.87;98965.94;5079077;27;45325;-84
2023/10/28 07:55:38;;;;;;;;;0.00;0.00;;;;;25.32;36.37;98968.78;5079512;27;45489;-72
2023/10/28 07:58:03;;;;;;;;;1.00;0.67;;;;;25.91;36.30;98979.72;5078264;27;45491;-73
2023/10/28 08:00:29;;;;;;;;;1.00;0.00;;;;;26.18;34.99;98967.41;5078617;28;45574;-81
2023/10/28 08:02:55;;;;;;;;;3.33;3.00;;;;;27.37;34.48;98981.56;5078897;27;45448;-73
2023/10/28 08:05:21;;;;;;;;;6.33;5.33;;;;;28.36;33.48;98968.72;5078907;28;45276;-74
2023/10/28 08:07:47;;;;;;;;;1.00;1.00;;;;;29.38;32.52;98972.38;5076170;28;46052;-73
2023/10/28 08:10:14;;;;;;;;;1.00;1.00;;;;;29.87;31.48;98976.00;5078617;27;45250;-74
2023/10/28 08:12:40;;;;;;;;;0.00;0.00;;;;;30.30;29.40;98996.94;5078366;28;45398;-76
2023/10/28 08:15:07;;;;;;;;;0.00;0.00;;;;;30.06;30.48;98965.56;5077831;27;46271;-76
2023/10/28 08:17:34;;;;;;;;;1.33;0.00;;;;;30.69;29.41;99001.13;5077955;27;46359;-78
2023/10/28 08:20:00;;;;;;;;;0.00;0.00;;;;;31.06;29.22;99027.09;5077262;27;45531;-75
2023/10/28 08:22:25;;;;;;;;;1.33;1.33;;;;;30.24;30.10;99032.44;5077987;27;45437;-89
2023/10/28 08:24:51;;;;;;;;;0.00;0.00;;;;;30.12;30.49;99020.75;5078807;27;45399;-89
2023/10/28 08:27:18;;;;;;;;;0.00;0.00;;;;;30.56;28.76;98988.72;5078170;28;45303;-85
2023/10/28 08:29:43;;;;;;;;;0.00;0.00;;;;;30.30;29.49;99003.25;5078299;27;45204;-77
2023/10/28 08:32:10;;;;;;;;;0.00;0.00;;;;;30.00;30.23;98986.69;5078056;27;45353;-86
2023/10/28 08:34:35;;;;;;;;;0.00;0.00;;;;;30.64;29.48;99027.59;5079240;27;45529;-86
2023/10/28 08:37:05;;;;;;;;;0.67;0.33;;;;;31.01;29.16;99005.84;5084890;27;46901;-78
2023/10/28 08:39:31;;;;;;;;;0.67;0.00;;;;;31.13;28.88;98993.22;5078185;27;45567;-87
2023/10/28 08:42:04;;;;;;;;;0.33;0.33;;;;;31.26;28.52;99042.53;5078296;28;45428;-76
2023/10/28 08:44:34;;;;;;;;;1.00;1.00;;;;;31.39;28.98;99031.59;5078048;27;45299;-77
2023/10/28 08:47:06;;;;;;;;;1.00;1.00;;;;;31.36;27.98;99025.63;5077441;27;45290;-76
2023/10/28 08:49:35;;;;;;;;;6.00;6.00;;;;;31.26;28.52;99037.13;5084773;27;45455;-86
2023/10/28 08:52:06;;;;;;;;;2.00;2.00;;;;;31.04;29.86;99026.34;5077466;27;45435;-83
2023/10/28 08:54:34;;;;;;;;;2.00;2.00;;;;;31.01;28.54;99029.28;5077623;27;45394;-82
2023/10/28 08:57:00;;;;;;;;;2.33;2.00;;;;;31.12;29.13;99024.75;5077115;27;45311;-83
2023/10/28 08:59:29;;;;;;;;;3.00;3.00;;;;;30.84;29.77;99035.94;5077046;28;45490;-80
2023/10/28 09:01:57;;;;;;;;;0.00;0.00;;;;;30.04;29.93;98969.31;5077934;28;46136;-81
2023/10/28 09:04:22;;;;;;;;;0.00;0.00;;;;;29.53;30.22;99016.97;5076417;28;45528;-80
2023/10/28 09:06:52;;;;;;;;;0.33;0.33;;;;;28.70;30.82;99004.03;5078246;28;45281;-78
2023/10/28 09:09:20;;;;;;;;;1.00;1.00;;;;;28.12;31.90;99002.63;5078073;27;45318;-78
2023/10/28 09:11:47;;;;;;;;;1.67;1.00;;;;;27.83;32.45;99034.91;5076299;27;45367;-78
2023/10/28 09:14:13;;;;;;;;;1.00;1.00;;;;;27.38;33.00;99047.66;5078225;28;45338;-79
2023/10/28 09:16:39;;;;;;;;;1.00;1.00;;;;;27.47;33.64;99038.16;5077409;27;45417;-79
2023/10/28 09:19:04;;;;;;;;;0.00;0.00;;;;;27.82;33.11;99010.88;5077609;28;45299;-81
2023/10/28 09:21:30;;;;;;;;;0.00;0.00;;;;;28.28;32.85;99046.25;5077832;27;45323;-78
2023/10/28 09:24:02;;;;;;;;;1.00;0.33;;;;;28.55;31.76;99029.25;5077739;28;45522;-78
2023/10/28 09:26:28;;;;;;;;;1.00;1.00;;;;;28.55;31.93;99007.78;5077195;28;46274;-81
2023/10/28 09:28:54;;;;;;;;;0.67;0.67;;;;;28.39;32.67;99010.63;5077297;27;45223;-79
2023/10/28 09:31:24;;;;;;;;;3.33;2.33;;;;;28.26;32.56;99023.19;5076061;27;45299;-79
2023/10/28 09:33:51;;;;;;;;;0.00;0.00;;;;;28.19;33.00;99019.16;5077696;27;45369;-80
2023/10/28 09:36:17;;;;;;;;;1.33;1.00;;;;;28.00;32.71;99012.34;5077449;27;45271;-81
2023/10/28 09:38:45;;;;;;;;;2.00;1.00;;;;;27.50;33.77;98998.59;5077452;27;45503;-79
2023/10/28 09:41:11;;;;;;;;;4.67;4.00;;;;;27.83;34.41;99008.06;5077276;27;45443;-81
2023/10/28 09:43:38;;;;;;;;;0.67;0.67;;;;;27.67;33.61;98954.56;5077480;27;45342;-82
2023/10/28 09:46:05;;;;;;;;;1.33;1.33;;;;;28.12;33.23;98999.94;5075033;27;45530;-80
2023/10/28 09:48:38;;;;;;;;;3.00;3.00;;;;;27.44;33.53;98929.25;5076581;28;45499;-81
2023/10/28 09:51:05;;;;;;;;;3.67;3.67;;;;;28.14;33.89;99023.03;5076146;27;45675;-80
2023/10/28 09:53:34;;;;;;;;;0.33;0.33;;;;;27.47;33.51;98915.63;5075200;28;45585;-80
2023/10/28 09:56:02;;;;;;;;;1.00;1.00;;;;;27.84;33.59;98995.53;5076650;27;46500;-85
2023/10/28 09:58:41;;;;;;;;;1.00;1.00;;;;;27.44;33.91;98977.53;5077284;27;45432;-80
2023/10/28 10:01:16;;;;;;;;;0.00;0.00;;;;;27.65;34.42;99015.50;5077515;27;45181;-80
2023/10/28 10:03:55;;;;;;;;;0.00;0.00;;;;;27.58;34.31;99016.88;5076653;27;45504;-82
2023/10/28 10:06:22;;;;;;;;;0.00;0.00;;;;;27.67;34.24;99026.97;5077231;28;45548;-78
2023/10/28 10:08:50;;;;;;;;;1.00;1.00;;;;;27.69;33.48;99018.84;5075461;27;46524;-86
2023/10/28 10:11:24;;;;;;;;;2.00;2.00;;;;;27.61;34.18;99026.53;5076868;28;45385;-80
2023/10/28 10:13:50;;;;;;;;;0.67;0.33;;;;;27.24;34.79;98994.91;5076877;27;45424;-81
2023/10/28 10:16:45;;;;;;;;;0.00;0.00;;;;;27.42;34.43;98998.22;5076873;27;45376;-82
2023/10/28 10:19:12;;;;;;;;;0.00;0.00;;;;;27.53;33.92;99001.06;5092086;27;45523;-80
2023/10/28 10:21:38;;;;;;;;;0.00;0.00;;;;;27.63;34.48;99025.47;5076872;27;45463;-78
2023/10/28 10:24:05;;;;;;;;;1.00;1.00;;;;;26.24;34.36;98797.50;5076440;27;45329;-86
2023/10/28 10:26:32;;;;;;;;;0.67;0.67;;;;;27.63;34.55;99013.88;5076108;27;45306;-84
2023/10/28 10:29:00;;;;;;;;;2.00;2.00;;;;;27.34;35.20;99022.84;5076506;27;45425;-77
2023/10/28 10:31:33;;;;;;;;;2.00;2.00;;;;;27.24;35.63;99002.94;5092439;27;45623;-79
2023/10/28 10:34:02;;;;;;;;;0.00;0.00;;;;;27.15;34.85;98987.41;5076169;27;45466;-79
2023/10/28 10:36:38;;;;;;;;;1.00;1.00;;;;;27.08;35.42;98983.38;5091445;27;45467;-79
2023/10/28 10:39:17;;;;;;;;;0.00;0.00;;;;;27.07;35.70;98987.03;5076275;27;45360;-79
2023/10/28 10:41:48;;;;;;;;;0.00;0.00;;;;;26.95;35.42;98984.16;5076724;27;45503;-77
2023/10/28 10:44:36;;;;;;;;;0.33;0.00;;;;;26.85;35.45;98969.59;5080257;27;45428;-84
2023/10/28 10:47:04;;;;;;;;;1.00;1.00;;;;;26.48;35.34;98930.81;5080482;28;46358;-78
2023/10/28 10:49:31;;;;;;;;;4.00;3.33;;;;;26.19;36.04;98936.13;5086721;27;45503;-78
2023/10/28 10:52:01;;;;;;;;;0.00;0.00;;;;;26.41;36.26;98991.06;5085899;28;45499;-79
2023/10/28 10:54:35;;;;;;;;;1.00;0.33;;;;;26.77;36.28;98994.19;5086393;27;45419;-82
2023/10/28 10:57:03;;;;;;;;;1.33;1.33;;;;;26.95;36.39;98994.88;5080149;27;45634;-86
2023/10/28 10:59:32;;;;;;;;;1.00;0.67;;;;;26.72;35.89;98948.09;5079248;28;45396;-83
2023/10/28 11:02:02;;;;;;;;;0.00;0.00;;;;;26.83;35.39;98973.34;5078740;27;45361;-86
2023/10/28 11:04:29;;;;;;;;;1.00;1.00;;;;;26.16;35.36;98939.88;5079181;27;45389;-78
2023/10/28 11:06:55;;;;;;;;;0.00;0.00;;;;;25.97;36.33;98913.31;5079564;27;45526;-77
2023/10/28 11:09:21;;;;;;;;;0.00;0.00;;;;;26.21;36.40;98987.75;5079636;28;45329;-77
2023/10/28 11:11:47;;;;;;;;;0.00;0.00;;;;;26.24;36.60;98968.81;5079402;27;45568;-77
2023/10/28 11:14:13;;;;;;;;;2.00;1.33;;;;;26.04;36.63;98919.16;5079517;27;46095;-76
2023/10/28 11:16:41;;;;;;;;;0.33;0.00;;;;;26.09;36.36;98953.69;5079454;27;45505;-76
2023/10/28 11:19:08;;;;;;;;;0.00;0.00;;;;;26.11;36.29;98959.81;5079207;28;45346;-76
2023/10/28 11:21:36;;;;;;;;;0.00;0.00;;;;;26.45;36.14;98955.13;5079489;27;45505;-76
2023/10/28 11:24:04;;;;;;;;;0.00;0.00;;;;;26.51;36.14;98933.31;5079418;27;45666;-76
2023/10/28 11:26:30;;;;;;;;;0.00;0.00;;;;;26.43;36.22;98943.63;5078768;27;45426;-77
2023/10/28 11:28:59;;;;;;;;;2.67;2.00;;;;;26.23;36.39;98944.84;5078792;27;45652;-77
2023/10/28 11:31:28;;;;;;;;;0.00;0.00;;;;;26.26;36.55;98920.56;5079824;28;45298;-77
2023/10/28 11:33:56;;;;;;;;;0.00;0.00;;;;;26.44;36.05;98943.53;5079761;27;45499;-77